Chilik Southeast Airfield

Jump to: basic info | weather | comments

Related pages: nearby airports | nearby navaids

Basic information (top)

Location: lon 43.223598, lat 78.732399, elev 4,497 ft / 1,371 m msl
Status: small_airport

Weather (top)

Current conditions for Almaty Airport 74nm (138km) W (rec'd 2015/04/02 01:00Z):

UAAA 020100Z 28005MPS 250V310 9999 BKN050 OVC100 M03/M07 Q1020 R88/65D NOSIG

Airport forecast for Almaty Airport 74nm (138km) W (rec'd 2015/04/01 00:18Z):

TAF TAF UAAA 012300Z 0200/0224 16005MPS 3000 FU SCT050CB BKN100 TX05/0208Z TNM06/0201Z 
      TEMPO 0200/0204 0300 -SHSN FZFG VV002 
      BECMG 0205/0206 04006MPS 9999 NSW 
      TEMPO 0212/0224 0600 BR FU

Latest comments (top)

Spelling: OK oK its Kazakhstan♄, so you have a ... [read]

Airfield: I came across this airfield on Google, ... [read]

More... (top)

See also NOTAMs and nearby airports and navaids, or visit the Chilik Southeast Airfield page at the main OurAirports website..